createdAt,value
2018-11-29T00:01:01.354Z,-4.50
2018-11-29T00:03:31.111Z,-4.60
2018-11-29T00:05:59.955Z,-4.70
2018-11-29T00:08:28.947Z,-4.70
2018-11-29T00:10:56.984Z,-4.70
2018-11-29T00:13:27.030Z,-4.60
2018-11-29T00:15:55.080Z,-4.70
2018-11-29T00:18:23.883Z,-4.70
2018-11-29T00:20:53.403Z,-4.70
2018-11-29T00:23:22.750Z,-4.60
2018-11-29T00:25:52.270Z,-4.60
2018-11-29T00:28:21.339Z,-4.50
2018-11-29T00:30:50.072Z,-4.60
2018-11-29T00:33:20.274Z,-4.80
2018-11-29T00:35:48.383Z,-4.80
2018-11-29T00:38:18.119Z,-4.90
2018-11-29T00:40:47.794Z,-5.00
2018-11-29T00:43:16.828Z,-5.00
2018-11-29T00:45:44.923Z,-5.00
2018-11-29T00:48:12.944Z,-4.90
2018-11-29T00:50:41.215Z,-5.00
2018-11-29T00:53:09.462Z,-5.00
2018-11-29T00:55:39.046Z,-5.10
2018-11-29T00:58:08.290Z,-5.00
2018-11-29T01:00:37.632Z,-4.90
2018-11-29T01:03:06.540Z,-5.00
2018-11-29T01:05:35.291Z,-5.00
2018-11-29T01:08:03.440Z,-5.00
2018-11-29T01:10:32.951Z,-5.10
2018-11-29T01:13:01.168Z,-5.10
2018-11-29T01:15:30.807Z,-5.10
2018-11-29T01:18:00.352Z,-5.20
2018-11-29T01:20:29.394Z,-5.10
2018-11-29T01:22:58.001Z,-5.10
2018-11-29T01:25:27.466Z,-5.20
2018-11-29T01:27:55.691Z,-5.30
2018-11-29T01:30:24.791Z,-5.50
2018-11-29T01:32:52.934Z,-5.50
2018-11-29T01:35:21.063Z,-5.40
2018-11-29T01:37:49.551Z,-5.50
2018-11-29T01:40:21.192Z,-5.40
2018-11-29T01:42:57.182Z,-5.40
2018-11-29T01:45:25.688Z,-5.30
2018-11-29T01:47:54.657Z,-5.30
2018-11-29T01:50:23.811Z,-5.30
2018-11-29T01:52:52.054Z,-5.20
2018-11-29T01:55:20.747Z,-5.20
2018-11-29T01:57:50.300Z,-5.30
2018-11-29T02:00:18.655Z,-5.20
2018-11-29T02:02:48.844Z,-5.20
2018-11-29T02:05:17.663Z,-5.30
2018-11-29T02:07:46.867Z,-5.30
2018-11-29T02:10:21.838Z,-5.40
2018-11-29T02:12:51.958Z,-5.50
2018-11-29T02:15:20.141Z,-5.30
2018-11-29T02:17:49.409Z,-5.30
2018-11-29T02:20:18.821Z,-5.30
2018-11-29T02:22:47.581Z,-5.30
2018-11-29T02:25:15.842Z,-5.40
2018-11-29T02:27:44.642Z,-5.40
2018-11-29T02:30:14.896Z,-5.40
2018-11-29T02:32:44.607Z,-5.40
2018-11-29T02:35:13.116Z,-5.40
2018-11-29T02:37:41.929Z,-5.60
2018-11-29T02:40:12.121Z,-5.70
2018-11-29T02:42:40.739Z,-5.70
2018-11-29T02:45:16.142Z,-5.60
2018-11-29T02:47:44.355Z,-5.60
2018-11-29T02:50:13.247Z,-5.60
2018-11-29T02:52:43.007Z,-5.60
2018-11-29T02:55:11.633Z,-5.60
2018-11-29T02:57:40.205Z,-5.60
2018-11-29T03:00:16.590Z,-5.70
2018-11-29T03:02:45.276Z,-5.70
2018-11-29T03:05:14.960Z,-5.70
2018-11-29T03:07:43.720Z,-5.60
2018-11-29T03:10:14.105Z,-5.40
2018-11-29T03:12:43.292Z,-5.30
2018-11-29T03:15:14.694Z,-5.20
2018-11-29T03:17:43.446Z,-5.10
2018-11-29T03:20:13.015Z,-5.20
2018-11-29T03:22:42.851Z,-5.10
2018-11-29T03:25:13.437Z,-4.80
2018-11-29T03:27:41.598Z,-5.00
2018-11-29T03:30:15.865Z,-5.00
2018-11-29T03:32:44.677Z,-5.10
2018-11-29T03:35:14.676Z,-5.20
2018-11-29T03:37:43.396Z,-5.20
2018-11-29T03:40:12.647Z,-5.30
2018-11-29T03:42:42.158Z,-5.20
2018-11-29T03:45:11.232Z,-5.20
2018-11-29T03:47:40.774Z,-5.30
2018-11-29T03:50:12.123Z,-5.30
2018-11-29T03:52:41.108Z,-5.30
2018-11-29T03:55:10.353Z,-5.40
2018-11-29T03:57:39.824Z,-5.30
2018-11-29T04:00:16.741Z,-5.30
2018-11-29T04:02:46.335Z,-5.30
2018-11-29T04:05:15.248Z,-5.20
2018-11-29T04:07:43.636Z,-5.10
2018-11-29T04:10:12.766Z,-5.10
2018-11-29T04:12:41.672Z,-5.20
2018-11-29T04:15:12.920Z,-5.10
2018-11-29T04:17:41.435Z,-5.20
2018-11-29T04:20:11.806Z,-5.20
2018-11-29T04:22:39.956Z,-5.40
2018-11-29T04:25:10.206Z,-5.40
2018-11-29T04:27:38.898Z,-5.40
2018-11-29T04:30:10.475Z,-5.40
2018-11-29T04:32:39.455Z,-5.30
2018-11-29T04:35:09.171Z,-5.20
2018-11-29T04:37:37.708Z,-5.20
2018-11-29T04:40:08.793Z,-5.10
2018-11-29T04:42:38.269Z,-5.20
2018-11-29T04:45:09.765Z,-5.20
2018-11-29T04:47:37.880Z,-5.30
2018-11-29T04:50:06.373Z,-5.30
2018-11-29T04:52:35.567Z,-5.20
2018-11-29T04:55:03.886Z,-5.10
2018-11-29T04:57:32.244Z,-5.10
2018-11-29T05:00:02.449Z,-5.10
2018-11-29T05:02:30.552Z,-5.00
2018-11-29T05:04:59.509Z,-5.00
2018-11-29T05:07:28.501Z,-5.00
2018-11-29T05:09:58.434Z,-5.00
2018-11-29T05:12:26.467Z,-5.00
2018-11-29T05:14:55.411Z,-5.00
2018-11-29T05:17:24.815Z,-5.00
2018-11-29T05:19:53.839Z,-5.00
2018-11-29T05:22:23.349Z,-4.90
2018-11-29T05:24:53.571Z,-4.90
2018-11-29T05:27:22.485Z,-4.90
2018-11-29T05:29:51.458Z,-4.90
2018-11-29T05:32:20.347Z,-4.80
2018-11-29T05:34:49.141Z,-4.80
2018-11-29T05:37:17.398Z,-4.80
2018-11-29T05:39:45.408Z,-4.60
2018-11-29T05:42:15.393Z,-4.60
2018-11-29T05:44:44.461Z,-4.60
2018-11-29T05:47:13.855Z,-4.60
2018-11-29T05:49:43.880Z,-4.50
2018-11-29T05:52:12.802Z,-4.50
2018-11-29T05:54:41.003Z,-4.50
2018-11-29T05:57:09.425Z,-4.50
2018-11-29T05:59:38.978Z,-4.50
2018-11-29T06:02:08.440Z,-4.40
2018-11-29T06:04:37.965Z,-4.30
2018-11-29T06:07:07.013Z,-4.40
2018-11-29T06:09:35.356Z,-4.40
2018-11-29T06:12:03.613Z,-4.40
2018-11-29T06:14:35.329Z,-4.30
2018-11-29T06:17:04.844Z,-4.30
2018-11-29T06:19:34.311Z,-4.30
2018-11-29T06:22:03.142Z,-4.30
2018-11-29T06:24:31.762Z,-4.30
2018-11-29T06:26:59.884Z,-4.40
2018-11-29T06:29:31.921Z,-4.40
2018-11-29T06:32:01.011Z,-4.40
2018-11-29T06:34:30.086Z,-4.30
2018-11-29T06:36:58.774Z,-4.20
2018-11-29T06:39:28.128Z,-4.30
2018-11-29T06:41:56.290Z,-4.30
2018-11-29T06:44:26.466Z,-4.30
2018-11-29T06:46:54.647Z,-4.40
2018-11-29T06:49:23.324Z,-4.30
2018-11-29T06:51:52.183Z,-4.50
2018-11-29T06:54:20.702Z,-4.60
2018-11-29T06:56:50.691Z,-4.70
2018-11-29T06:59:21.066Z,-4.40
2018-11-29T07:01:51.092Z,-4.20
2018-11-29T07:04:21.271Z,-4.20
2018-11-29T07:06:51.385Z,-4.40
2018-11-29T07:09:21.032Z,-4.30
2018-11-29T07:11:50.117Z,-4.20
2018-11-29T07:14:19.257Z,-4.20
2018-11-29T07:16:48.468Z,-4.10
2018-11-29T07:19:17.247Z,-4.10
2018-11-29T07:21:53.211Z,-4.10
2018-11-29T07:24:23.324Z,-4.40
2018-11-29T07:26:52.979Z,-4.40
2018-11-29T07:29:29.559Z,-4.30
2018-11-29T07:31:57.810Z,-4.40
2018-11-29T07:34:26.035Z,-4.20
2018-11-29T07:36:54.570Z,-4.00
2018-11-29T07:39:23.959Z,-3.90
2018-11-29T07:41:52.014Z,-3.70
2018-11-29T07:44:20.856Z,-3.60
2018-11-29T07:46:49.591Z,-3.60
2018-11-29T07:49:18.504Z,-3.50
2018-11-29T07:51:46.685Z,-3.50
2018-11-29T07:54:15.904Z,-3.60
2018-11-29T07:56:46.222Z,-3.50
2018-11-29T07:59:18.599Z,-3.40
2018-11-29T08:01:47.348Z,-3.20
2018-11-29T08:04:16.799Z,-3.00
2018-11-29T08:06:45.169Z,-3.00
2018-11-29T08:09:14.755Z,-2.90
2018-11-29T08:11:43.405Z,-2.60
2018-11-29T08:14:12.839Z,-2.60
2018-11-29T08:16:41.837Z,-2.40
2018-11-29T08:19:10.450Z,-2.50
2018-11-29T08:21:38.862Z,-2.50
2018-11-29T08:24:07.679Z,-2.70
2018-11-29T08:26:37.114Z,-2.50
2018-11-29T08:29:05.937Z,-2.20
2018-11-29T08:31:34.466Z,-2.20
2018-11-29T08:34:03.939Z,-1.90
2018-11-29T08:36:31.983Z,-1.70
2018-11-29T08:39:00.781Z,-1.70
2018-11-29T08:41:29.725Z,-1.70
2018-11-29T08:43:58.822Z,-2.00
2018-11-29T08:46:28.549Z,-2.00
2018-11-29T08:48:56.657Z,-1.60
2018-11-29T08:51:25.575Z,-1.30
2018-11-29T08:53:53.937Z,-1.00
2018-11-29T08:56:23.657Z,-0.70
2018-11-29T08:58:54.142Z,-0.70
2018-11-29T09:01:23.612Z,-0.30
2018-11-29T09:03:52.217Z,-0.10
2018-11-29T09:06:21.969Z,0.00
2018-11-29T09:08:51.540Z,0.20
2018-11-29T09:11:20.161Z,0.40
2018-11-29T09:13:48.973Z,0.60
2018-11-29T09:16:18.139Z,0.20
2018-11-29T09:18:46.923Z,0.20
2018-11-29T09:21:15.433Z,-0.40
2018-11-29T09:23:43.912Z,-0.60
2018-11-29T09:26:12.231Z,-0.30
2018-11-29T09:28:40.399Z,-0.50
2018-11-29T09:31:09.467Z,-0.80
2018-11-29T09:33:41.463Z,-1.10
2018-11-29T09:36:11.181Z,-1.10
2018-11-29T09:38:39.920Z,-0.80
2018-11-29T09:41:08.394Z,-1.10
2018-11-29T09:43:37.867Z,-1.60
2018-11-29T09:46:07.272Z,-1.60
2018-11-29T09:48:38.266Z,-1.70
2018-11-29T09:51:07.298Z,-1.50
2018-11-29T09:53:36.954Z,-1.60
2018-11-29T09:56:07.333Z,-1.20
2018-11-29T09:58:36.391Z,-1.20
2018-11-29T10:01:05.174Z,-1.10
2018-11-29T10:03:34.676Z,-1.40
2018-11-29T10:06:04.054Z,-1.60
2018-11-29T10:08:33.274Z,-1.40
2018-11-29T10:11:03.826Z,-1.40
2018-11-29T10:13:33.950Z,-1.30
2018-11-29T10:16:02.617Z,-1.40
2018-11-29T10:18:32.147Z,-1.00
2018-11-29T10:21:00.931Z,-1.00
2018-11-29T10:23:30.379Z,-0.70
2018-11-29T10:26:00.075Z,-0.40
2018-11-29T10:28:29.526Z,-0.50
2018-11-29T10:31:00.370Z,-0.20
2018-11-29T10:33:29.075Z,-0.20
2018-11-29T10:36:00.006Z,-0.50
2018-11-29T10:38:32.173Z,-0.70
2018-11-29T10:41:03.619Z,-1.10
2018-11-29T10:43:33.928Z,-1.00
2018-11-29T10:46:04.061Z,-1.00
2018-11-29T10:48:33.540Z,-1.20
2018-11-29T10:51:03.428Z,-1.20
2018-11-29T10:53:37.018Z,-1.10
2018-11-29T10:56:00.288Z,-1.10
2018-11-29T10:58:29.481Z,-1.10
2018-11-29T11:01:05.784Z,-0.80
2018-11-29T11:03:34.594Z,-0.70
2018-11-29T11:06:03.830Z,-1.20
2018-11-29T11:08:32.240Z,-1.30
2018-11-29T11:11:08.945Z,-1.40
2018-11-29T11:13:38.422Z,-1.30
2018-11-29T11:16:07.475Z,-1.00
2018-11-29T11:18:37.427Z,-1.20
2018-11-29T11:21:06.948Z,-1.20
2018-11-29T11:23:36.586Z,-0.80
2018-11-29T11:26:06.047Z,-1.10
2018-11-29T11:28:35.195Z,-1.10
2018-11-29T11:31:07.568Z,-1.20
2018-11-29T11:33:37.155Z,-1.00
2018-11-29T11:36:07.989Z,-0.80
2018-11-29T11:38:36.576Z,-1.00
2018-11-29T11:41:09.506Z,-1.00
2018-11-29T11:43:39.511Z,-0.90
2018-11-29T11:46:09.255Z,-0.80
2018-11-29T11:48:39.790Z,-0.60
2018-11-29T11:51:09.021Z,-0.80
2018-11-29T11:53:38.565Z,-1.00
2018-11-29T11:56:08.983Z,-0.90
2018-11-29T11:58:39.489Z,-0.80
2018-11-29T12:01:11.022Z,-0.70
2018-11-29T12:03:42.472Z,-0.90
2018-11-29T12:06:11.884Z,-1.00
2018-11-29T12:08:47.216Z,-1.00
2018-11-29T12:11:15.383Z,-1.00
2018-11-29T12:13:50.130Z,-1.00
2018-11-29T12:16:18.563Z,-0.80
2018-11-29T12:18:51.286Z,-0.60
2018-11-29T12:21:22.810Z,-0.60
2018-11-29T12:23:51.718Z,-0.40
2018-11-29T12:26:21.264Z,-0.30
2018-11-29T12:28:56.266Z,-0.50
2018-11-29T12:31:29.149Z,-0.40
2018-11-29T12:34:02.368Z,-0.50
2018-11-29T12:36:33.478Z,-0.30
2018-11-29T12:39:03.228Z,-0.30
2018-11-29T12:41:33.468Z,0.00
2018-11-29T12:44:04.040Z,0.00
2018-11-29T12:46:34.812Z,-0.30
2018-11-29T12:49:05.603Z,-0.60
2018-11-29T12:51:35.314Z,-0.50
2018-11-29T12:54:06.281Z,-0.10
2018-11-29T12:56:35.367Z,0.20
2018-11-29T12:59:05.078Z,-0.10
2018-11-29T13:01:36.004Z,-0.10
2018-11-29T13:04:08.407Z,-0.30
2018-11-29T13:06:37.507Z,-0.30
2018-11-29T13:09:08.837Z,-0.40
2018-11-29T13:11:38.223Z,-0.10
2018-11-29T13:14:08.159Z,0.00
2018-11-29T13:16:37.715Z,-0.30
2018-11-29T13:19:07.562Z,-0.30
2018-11-29T13:21:35.949Z,-0.20
2018-11-29T13:24:05.770Z,-0.10
2018-11-29T13:26:36.499Z,-0.40
2018-11-29T13:29:06.298Z,-0.40
2018-11-29T13:31:35.060Z,0.20
2018-11-29T13:34:04.794Z,-0.40
2018-11-29T13:36:37.053Z,-0.70
2018-11-29T13:39:09.607Z,-0.60
2018-11-29T13:41:38.795Z,-0.40
2018-11-29T13:44:09.493Z,-0.60
2018-11-29T13:49:09.917Z,-0.60
2018-11-29T13:51:38.951Z,-0.70
2018-11-29T13:54:08.333Z,-0.70
2018-11-29T13:56:38.605Z,-0.80
2018-11-29T13:59:07.556Z,-0.90
2018-11-29T14:01:36.193Z,-1.00
2018-11-29T14:04:05.138Z,-0.90
2018-11-29T14:06:35.549Z,-0.70
2018-11-29T14:09:06.182Z,-0.80
2018-11-29T14:11:35.765Z,-0.90
2018-11-29T14:14:08.047Z,-0.90
2018-11-29T14:16:36.131Z,-0.80
2018-11-29T14:19:05.176Z,-0.50
2018-11-29T14:21:35.086Z,-0.60
2018-11-29T14:24:04.828Z,-0.80
2018-11-29T14:26:34.023Z,-1.20
2018-11-29T14:29:07.852Z,-1.10
2018-11-29T14:31:36.923Z,-1.00
2018-11-29T14:34:06.021Z,-1.00
2018-11-29T14:36:34.207Z,-1.20
2018-11-29T14:39:03.947Z,-1.40
2018-11-29T14:41:32.056Z,-1.40
2018-11-29T14:44:01.491Z,-1.60
2018-11-29T14:46:30.470Z,-1.40
2018-11-29T14:48:58.648Z,-1.50
2018-11-29T14:51:27.679Z,-1.70
2018-11-29T14:53:57.145Z,-1.60
2018-11-29T14:56:26.433Z,-1.50
2018-11-29T14:58:55.886Z,-1.30
2018-11-29T15:01:27.095Z,-1.00
2018-11-29T15:03:57.824Z,-1.30
2018-11-29T15:06:27.799Z,-1.60
2018-11-29T15:08:56.811Z,-1.50
2018-11-29T15:11:29.362Z,-1.60
2018-11-29T15:13:57.487Z,-1.70
2018-11-29T15:16:25.661Z,-1.90
2018-11-29T15:18:55.673Z,-1.90
2018-11-29T15:21:25.794Z,-2.00
2018-11-29T15:23:55.583Z,-1.90
2018-11-29T15:26:23.787Z,-2.00
2018-11-29T15:28:52.980Z,-2.10
2018-11-29T15:31:33.333Z,-1.80
2018-11-29T15:34:02.927Z,-1.70
2018-11-29T15:36:32.697Z,-1.80
2018-11-29T15:39:04.086Z,-1.90
2018-11-29T15:41:36.092Z,-1.80
2018-11-29T15:44:05.721Z,-2.20
2018-11-29T15:46:38.280Z,-2.30
2018-11-29T15:49:07.105Z,-2.30
2018-11-29T15:51:35.575Z,-2.20
2018-11-29T15:54:04.933Z,-2.20
2018-11-29T15:56:34.125Z,-2.10
2018-11-29T15:59:04.916Z,-2.40
2018-11-29T16:01:34.435Z,-2.40
2018-11-29T16:04:08.978Z,-2.20
2018-11-29T16:06:37.875Z,-2.40
2018-11-29T16:09:10.143Z,-2.40
2018-11-29T16:11:39.132Z,-2.20
2018-11-29T16:14:09.124Z,-2.00
2018-11-29T16:16:39.682Z,-2.20
2018-11-29T16:19:09.527Z,-2.10
2018-11-29T16:21:39.972Z,-2.00
2018-11-29T16:24:10.313Z,-2.20
2018-11-29T16:26:40.876Z,-2.20
2018-11-29T16:29:11.410Z,-2.40
2018-11-29T16:31:45.605Z,-2.40
2018-11-29T16:34:16.870Z,-2.30
2018-11-29T16:36:47.759Z,-2.50
2018-11-29T16:39:18.437Z,-2.40
2018-11-29T16:41:49.080Z,-2.20
2018-11-29T16:44:20.825Z,-2.40
2018-11-29T16:46:50.213Z,-2.30
2018-11-29T16:49:20.040Z,-2.60
2018-11-29T16:51:53.362Z,-2.90
2018-11-29T16:54:22.114Z,-3.00
2018-11-29T16:56:53.809Z,-3.00
2018-11-29T16:59:22.550Z,-2.90
2018-11-29T17:01:50.835Z,-2.80
2018-11-29T17:04:26.491Z,-2.50
2018-11-29T17:06:56.569Z,-2.80
2018-11-29T17:09:31.058Z,-2.70
2018-11-29T17:12:01.506Z,-2.90
2018-11-29T17:14:33.422Z,-2.90
2018-11-29T17:17:04.767Z,-2.90
2018-11-29T17:19:35.909Z,-2.90
2018-11-29T17:22:04.753Z,-2.60
2018-11-29T17:24:36.963Z,-2.90
2018-11-29T17:27:06.857Z,-3.00
2018-11-29T17:29:35.364Z,-2.90
2018-11-29T17:32:05.773Z,-3.00
2018-11-29T17:34:36.314Z,-2.90
2018-11-29T17:37:05.414Z,-2.70
2018-11-29T17:39:40.512Z,-2.90
2018-11-29T17:42:15.890Z,-2.90
2018-11-29T17:44:48.366Z,-3.00
2018-11-29T17:47:21.241Z,-2.70
2018-11-29T17:52:35.695Z,-2.90
2018-11-29T17:55:05.330Z,-2.70
2018-11-29T17:57:39.913Z,-2.90
2018-11-29T18:00:23.896Z,-2.80
2018-11-29T18:02:56.905Z,-2.70
2018-11-29T18:05:31.895Z,-2.70
2018-11-29T18:08:03.441Z,-2.80
2018-11-29T18:10:34.813Z,-2.90
2018-11-29T18:13:15.722Z,-2.70
2018-11-29T18:15:44.718Z,-2.70
2018-11-29T18:18:19.918Z,-3.00
2018-11-29T18:20:50.490Z,-3.00
2018-11-29T18:23:22.830Z,-2.90
2018-11-29T18:25:53.347Z,-2.80
2018-11-29T18:28:28.893Z,-3.10
2018-11-29T18:31:00.154Z,-3.10
2018-11-29T18:33:30.236Z,-3.20
2018-11-29T18:36:06.495Z,-3.20
2018-11-29T18:38:35.653Z,-3.30
2018-11-29T18:41:08.323Z,-3.30
2018-11-29T18:43:38.648Z,-3.10
2018-11-29T18:46:17.112Z,-3.10
2018-11-29T18:48:45.789Z,-3.00
2018-11-29T18:51:15.575Z,-2.90
2018-11-29T18:53:46.350Z,-3.10
2018-11-29T18:56:17.415Z,-3.00
2018-11-29T18:58:48.137Z,-2.80
2018-11-29T19:01:18.431Z,-2.80
2018-11-29T19:03:48.792Z,-2.50
2018-11-29T19:06:23.651Z,-2.40
2018-11-29T19:08:53.541Z,-2.70
2018-11-29T19:11:29.413Z,-3.10
2018-11-29T19:14:04.540Z,-3.10
2018-11-29T19:19:35.707Z,-3.10
2018-11-29T19:22:08.262Z,-3.20
2018-11-29T19:24:40.943Z,-3.00
2018-11-29T19:27:23.454Z,-3.00
2018-11-29T19:29:56.238Z,-3.00
2018-11-29T19:35:21.733Z,-3.10
2018-11-29T19:37:59.266Z,-3.10
2018-11-29T19:40:34.952Z,-3.00
2018-11-29T19:43:14.524Z,-3.00
2018-11-29T19:45:50.207Z,-3.00
2018-11-29T19:48:21.226Z,-3.00
2018-11-29T19:50:52.403Z,-3.00
2018-11-29T19:53:23.873Z,-2.60
2018-11-29T19:55:58.364Z,-2.50
2018-11-29T19:58:29.406Z,-2.70
2018-11-29T20:01:13.141Z,-2.80
2018-11-29T20:03:48.705Z,-2.90
2018-11-29T20:06:34.974Z,-2.90
2018-11-29T20:09:13.530Z,-3.00
2018-11-29T20:11:43.385Z,-2.90
2018-11-29T20:14:14.915Z,-3.10
2018-11-29T20:16:55.528Z,-3.10
2018-11-29T20:19:29.983Z,-3.00
2018-11-29T20:22:05.618Z,-2.70
2018-11-29T20:24:41.770Z,-2.40
2018-11-29T20:27:15.778Z,-2.10
2018-11-29T20:29:48.766Z,-2.00
2018-11-29T20:32:37.704Z,-2.40
2018-11-29T20:35:14.144Z,-2.60
2018-11-29T20:37:44.379Z,-2.80
2018-11-29T20:40:17.587Z,-3.00
2018-11-29T20:45:26.930Z,-3.20
2018-11-29T20:47:59.380Z,-3.30
2018-11-29T20:50:31.124Z,-2.90
2018-11-29T20:53:01.925Z,-2.80
2018-11-29T20:55:38.621Z,-3.00
2018-11-29T20:58:15.449Z,-3.00
2018-11-29T21:00:46.821Z,-3.00
2018-11-29T21:03:20.000Z,-3.00
2018-11-29T21:05:55.148Z,-3.00
2018-11-29T21:11:12.180Z,-3.00
2018-11-29T21:13:43.866Z,-3.10
2018-11-29T21:16:16.392Z,-3.40
2018-11-29T21:18:44.994Z,-3.20
2018-11-29T21:21:15.186Z,-3.40
2018-11-29T21:23:43.909Z,-3.40
2018-11-29T21:26:14.131Z,-3.30
2018-11-29T21:28:48.532Z,-3.30
2018-11-29T21:31:20.499Z,-3.30
2018-11-29T21:33:52.977Z,-3.20
2018-11-29T21:36:25.660Z,-3.20
2018-11-29T21:38:54.038Z,-3.20
2018-11-29T21:41:23.485Z,-3.40
2018-11-29T21:43:52.437Z,-3.50
2018-11-29T21:46:30.679Z,-3.50
2018-11-29T21:49:01.151Z,-3.50
2018-11-29T21:51:32.357Z,-3.40
2018-11-29T21:54:01.330Z,-3.60
2018-11-29T21:56:29.686Z,-3.50
2018-11-29T21:58:59.399Z,-3.50
2018-11-29T22:01:32.311Z,-3.60
2018-11-29T22:04:02.831Z,-3.40
2018-11-29T22:06:32.464Z,-3.50
2018-11-29T22:09:03.264Z,-3.20
2018-11-29T22:11:34.719Z,-3.30
2018-11-29T22:14:04.805Z,-3.40
2018-11-29T22:16:33.717Z,-3.40
2018-11-29T22:19:02.598Z,-3.40
2018-11-29T22:21:31.737Z,-3.10
2018-11-29T22:24:02.758Z,-3.30
2018-11-29T22:26:33.391Z,-3.50
2018-11-29T22:29:01.750Z,-3.30
2018-11-29T22:31:30.302Z,-3.30
2018-11-29T22:34:00.517Z,-3.40
2018-11-29T22:36:30.087Z,-3.70
2018-11-29T22:38:59.030Z,-3.70
2018-11-29T22:41:27.573Z,-3.50
2018-11-29T22:43:55.851Z,-3.40
2018-11-29T22:46:25.359Z,-3.50
2018-11-29T22:48:54.421Z,-3.60
2018-11-29T22:51:23.750Z,-3.60
2018-11-29T22:53:53.203Z,-3.60
2018-11-29T22:56:22.358Z,-3.50
2018-11-29T22:58:52.098Z,-3.30
2018-11-29T23:01:27.195Z,-3.20
2018-11-29T23:03:55.999Z,-3.50
2018-11-29T23:06:25.460Z,-3.60
2018-11-29T23:08:54.764Z,-3.60
2018-11-29T23:11:22.823Z,-3.70
2018-11-29T23:13:51.351Z,-3.60
2018-11-29T23:16:21.485Z,-3.60
2018-11-29T23:18:50.302Z,-3.60
2018-11-29T23:21:20.051Z,-3.30
2018-11-29T23:23:48.835Z,-3.40
2018-11-29T23:26:16.956Z,-3.00
2018-11-29T23:28:47.522Z,-3.20
2018-11-29T23:31:15.669Z,-3.50
2018-11-29T23:33:44.462Z,-3.30
2018-11-29T23:36:15.363Z,-3.30
2018-11-29T23:38:43.391Z,-3.20
2018-11-29T23:41:13.029Z,-3.50
2018-11-29T23:43:41.765Z,-3.30
2018-11-29T23:46:10.061Z,-3.40
2018-11-29T23:48:39.413Z,-3.20
2018-11-29T23:51:07.413Z,-2.80
2018-11-29T23:53:36.966Z,-2.60
2018-11-29T23:56:06.817Z,-2.30
2018-11-29T23:58:35.942Z,-2.90
